CheckWX is a tool to help pilots better visualize weather data.  It is not intended as a substitute for an official pre-flight weather briefing.

06:02:54 UTC

HESN METAR
Aswan International Airport
Aswan, Egypt
Current

1 hour ago

HESN 200500Z 01005KT CAVOK 10/M01 Q1020 NOSIG
Observed
Feb-20 @ 05:00 UTC
Wind
  • 010° at 5 KTS
Visibility
10,000+ meters
Flight Rules
VFR
Cloud Levels
  • Clear skies
Temperature
10°C / 50°F
Dewpoint
-1°C / 30°F
Humidity
47%
Altimeter
30.12" Hg
Pressure
1019.92 hPa
Previous

2 hours ago

HESN 200400Z 35006KT CAVOK 09/M01 Q1020 NOSIG
Observed
Feb-20 @ 04:00 UTC
Wind
  • 350° at 6 KTS
Visibility
10,000+ meters
Flight Rules
VFR
Cloud Levels
  • Clear skies
Temperature
C / 48°F
Dewpoint
-1°C / 30°F
Humidity
50%
Altimeter
30.12" Hg
Pressure
1019.92 hPa
Previous

3 hours ago

HESN 200300Z 01005KT CAVOK 10/M02 Q1019 NOSIG
Observed
Feb-20 @ 03:00 UTC
Wind
  • 010° at 5 KTS
Visibility
10,000+ meters
Flight Rules
VFR
Cloud Levels
  • Clear skies
Temperature
10°C / 50°F
Dewpoint
-2°C / 28°F
Humidity
43%
Altimeter
30.09" Hg
Pressure
1018.92 hPa